Porosity — WDF7776 — position and weather

sailwx.info

Track history (hours):
 
Tides and Currents Weather Stations Pressure Air Temp Water Temp Dewpoint Dewpoint Depression Visibility Wind Speed Wind Dir Waves Ship Positions

Porosity

Owner: Bahlburg, Bill, plano, TX. More information available from US FCC via Universal Licensing System and Coast Guard Vessel Documentation Center.

Last reported at 2017-Oct-23 18:17 UTC. Time now 2017-Nov-18 21:58 UTC.
Position N 48°34' W 123°01'.
Warning: this ship's position is 26 days out of date.

Length 19 m.

Type: Pleasure craft. MMSI: 367488010.

Date/timePositionNaut miles runAvg speedWind from/ knotsBaromVisibWave heightAir tempDewpointWater temp
2017-Oct-23 18:17N 48°34' W 123°01'2 6.3
2017-Oct-23 18:00N 48°33' W 123°00'1 0.9
2017-Oct-23 17:24N 48°32' W 123°01'0 0.1
2017-Oct-23 17:00N 48°32' W 123°01'0 0.1
2017-Oct-23 16:30N 48°32' W 123°01'0 0.0
2017-Oct-23 16:00N 48°32' W 123°01'0 0.0
2017-Oct-23 15:30N 48°32' W 123°01'0 0.0
2017-Oct-23 15:00N 48°32' W 123°01'0 0.0
2017-Oct-23 14:30N 48°32' W 123°01'0 0.0
2017-Oct-23 14:00N 48°32' W 123°01'0 0.0
2017-Oct-23 13:30N 48°32' W 123°01'0 0.0
2017-Oct-23 13:00N 48°32' W 123°01'0 0.0
2017-Oct-23 12:18N 48°32' W 123°01'0 0.0
2017-Oct-23 11:54N 48°32' W 123°01'0 0.0
2017-Oct-23 11:30N 48°32' W 123°01'0 0.0
2017-Oct-23 10:57N 48°32' W 123°01'0 0.1
2017-Oct-23 10:24N 48°32' W 123°01'0 0.0
2017-Oct-23 10:00N 48°32' W 123°01'0 0.0
2017-Oct-23 09:24N 48°32' W 123°01'0 0.0
2017-Oct-23 09:00N 48°32' W 123°01'0 0.0
2017-Oct-23 08:30N 48°32' W 123°01'0 0.0
2017-Oct-23 08:00N 48°32' W 123°01'0 0.0
2017-Oct-23 07:21N 48°32' W 123°01'0 0.0
2017-Oct-23 07:00N 48°32' W 123°01'0 0.0
2017-Oct-23 06:24N 48°32' W 123°01'0 0.0
2017-Oct-23 06:00N 48°32' W 123°01'0 0.0
2017-Oct-23 05:30N 48°32' W 123°01'0 0.0
2017-Oct-23 05:00N 48°32' W 123°01'0 0.1
2017-Oct-23 04:30N 48°32' W 123°01'0 0.0
2017-Oct-23 03:42N 48°32' W 123°01'0 0.0
2017-Oct-23 03:30N 48°32' W 123°01'0 0.0
2017-Oct-23 03:00N 48°32' W 123°01'0 0.0
2017-Oct-23 02:24N 48°32' W 123°01'0 0.0
2017-Oct-23 01:57N 48°32' W 123°01'0 0.0
2017-Oct-23 01:30N 48°32' W 123°01'0 0.1
2017-Oct-23 00:59N 48°32' W 123°01'2 4.6
2017-Oct-23 00:30N 48°31' W 122°58'39 9.0
2017-Oct-22 20:14N 47°56' W 122°33'2 9.8
2017-Oct-22 20:00N 47°55' W 122°31'5 9.8
2017-Oct-22 19:30N 47°50' W 122°29'5 9.4
2017-Oct-22 19:00N 47°45' W 122°26'5 9.4
2017-Oct-22 18:30N 47°41' W 122°25'1 2.6
2017-Oct-22 17:59N 47°40' W 122°24'1 1.2
2017-Oct-22 17:30N 47°40' W 122°23'2 3.5
2017-Oct-22 17:00N 47°39' W 122°21'0 0.0
2017-Oct-22 16:30N 47°39' W 122°21'1 1.0
2017-Oct-22 16:00N 47°38' W 122°20'0 0.0
2017-Oct-22 15:30N 47°38' W 122°20'0 0.0
2017-Oct-22 15:00N 47°38' W 122°20'0 0.0
2017-Oct-22 14:30N 47°38' W 122°20'0 0.0
2017-Oct-22 14:00N 47°38' W 122°20'0 0.0
2017-Oct-22 13:30N 47°38' W 122°20'0 0.0
2017-Oct-22 13:00N 47°38' W 122°20'0 0.0
2017-Oct-22 12:30N 47°38' W 122°20'0 0.0
2017-Oct-22 12:00N 47°38' W 122°20'0 0.0
2017-Oct-22 11:30N 47°38' W 122°20'0 0.0
2017-Oct-22 11:00N 47°38' W 122°20'0 0.0
2017-Oct-22 10:30N 47°38' W 122°20'0 0.0
2017-Oct-22 10:00N 47°38' W 122°20'0 0.0
2017-Oct-22 09:30N 47°38' W 122°20'0 0.0
2017-Oct-22 09:00N 47°38' W 122°20'0 0.0
2017-Oct-22 08:30N 47°38' W 122°20'0 0.0
2017-Oct-22 07:54N 47°38' W 122°20'0 0.0
2017-Oct-22 07:30N 47°38' W 122°20'0 0.0
2017-Oct-22 07:00N 47°38' W 122°20'0 0.0
2017-Oct-22 06:30N 47°38' W 122°20'0 0.0
2017-Oct-22 06:00N 47°38' W 122°20'0 0.0
2017-Oct-22 05:30N 47°38' W 122°20'0 0.0
2017-Oct-22 05:00N 47°38' W 122°20'0 0.0
2017-Oct-22 04:30N 47°38' W 122°20'0 0.0
2017-Oct-22 04:00N 47°38' W 122°20'0 0.0
2017-Oct-22 03:27N 47°38' W 122°20'0 0.0
2017-Oct-22 03:00N 47°38' W 122°20'0 0.0
2017-Oct-22 02:30N 47°38' W 122°20'0 0.0
2017-Oct-22 01:51N 47°38' W 122°20'0 0.0
2017-Oct-22 01:30N 47°38' W 122°20'0 0.0
2017-Oct-22 00:51N 47°38' W 122°20'0 0.0
2017-Oct-22 00:18N 47°38' W 122°20'0 0.0
2017-Oct-21 23:55N 47°38' W 122°20'0 0.0
2017-Oct-21 23:25N 47°38' W 122°20'0 0.0
2017-Oct-21 22:54N 47°38' W 122°20'0 0.0
2017-Oct-21 22:27N 47°38' W 122°20'0 0.0
2017-Oct-21 21:57N 47°38' W 122°20'0 0.0
2017-Oct-21 21:30N 47°38' W 122°20'0 0.0
2017-Oct-21 20:57N 47°38' W 122°20'0 0.0
2017-Oct-21 20:18N 47°38' W 122°20'0 0.0
2017-Oct-21 19:57N 47°38' W 122°20'0 0.0
2017-Oct-21 19:30N 47°38' W 122°20'0 0.0
2017-Oct-21 19:00N 47°38' W 122°20'0 0.0
2017-Oct-21 18:30N 47°38' W 122°20'0 0.0
2017-Oct-21 18:00N 47°38' W 122°20'0 0.0
2017-Oct-21 17:30N 47°38' W 122°20'0 0.0
2017-Oct-21 17:00N 47°38' W 122°20'0 0.0
2017-Oct-21 16:30N 47°38' W 122°20'0 0.0
2017-Oct-21 16:00N 47°38' W 122°20'0 0.0
2017-Oct-21 15:30N 47°38' W 122°20'0 0.0
2017-Oct-21 15:00N 47°38' W 122°20'0 0.0
2017-Oct-21 14:00N 47°38' W 122°20'0 0.0
2017-Oct-21 13:30N 47°38' W 122°20'0 0.0
2017-Oct-21 13:00N 47°38' W 122°20'0 0.0
2017-Oct-21 12:30N 47°38' W 122°20'0 0.0
2017-Oct-21 12:00N 47°38' W 122°20'0 0.0
2017-Oct-21 11:30N 47°38' W 122°20'0 0.0
2017-Oct-21 11:00N 47°38' W 122°20'0 0.0
2017-Oct-21 10:30N 47°38' W 122°20'0 0.0
2017-Oct-21 10:00N 47°38' W 122°20'0 0.0
2017-Oct-21 09:30N 47°38' W 122°20'0 0.0
2017-Oct-21 09:00N 47°38' W 122°20'0 0.0
2017-Oct-21 08:30N 47°38' W 122°20'0 0.0
2017-Oct-21 08:00N 47°38' W 122°20'0 0.0
2017-Oct-21 07:30N 47°38' W 122°20'0 0.0
2017-Oct-21 07:00N 47°38' W 122°20'0 0.0
2017-Oct-21 06:30N 47°38' W 122°20'0 0.0
2017-Oct-21 06:00N 47°38' W 122°20'0 0.0
2017-Oct-21 05:30N 47°38' W 122°20'0 0.0
2017-Oct-21 05:00N 47°38' W 122°20'0 0.0
2017-Oct-21 04:30N 47°38' W 122°20'0 0.0
2017-Oct-21 04:00N 47°38' W 122°20'0 0.0
2017-Oct-21 03:30N 47°38' W 122°20'0 0.0
2017-Oct-21 03:00N 47°38' W 122°20'0 0.0
2017-Oct-21 02:30N 47°38' W 122°20'0 0.0
2017-Oct-21 02:00N 47°38' W 122°20'0 0.0
2017-Oct-21 01:30N 47°38' W 122°20'0 0.0
2017-Oct-21 01:00N 47°38' W 122°20'0 0.0
2017-Oct-21 00:30N 47°38' W 122°20'0 0.0
2017-Oct-21 00:00N 47°38' W 122°20'0 0.0
2017-Oct-20 23:30N 47°38' W 122°20'0 0.0
2017-Oct-20 23:00N 47°38' W 122°20'0 0.0
2017-Oct-20 22:30N 47°38' W 122°20'0 0.0
2017-Oct-20 22:00N 47°38' W 122°20'0 0.0
2017-Oct-20 21:30N 47°38' W 122°20'0 0.0
2017-Oct-20 21:00N 47°38' W 122°20'0 0.0
2017-Oct-20 20:30N 47°38' W 122°20'0 0.0
2017-Oct-20 20:00N 47°38' W 122°20'0 0.0
2017-Oct-20 19:30N 47°38' W 122°20'0 0.0
2017-Oct-20 19:00N 47°38' W 122°20'0 0.0
2017-Oct-20 18:30N 47°38' W 122°20'0 0.0
2017-Oct-20 18:00N 47°38' W 122°20'0 0.0
2017-Oct-20 17:30N 47°38' W 122°20'0 0.0
2017-Oct-20 16:42N 47°38' W 122°20'0 0.0
2017-Oct-20 16:27N 47°38' W 122°20'0 0.0
2017-Oct-20 16:00N 47°38' W 122°20'0 0.0
2017-Oct-20 15:30N 47°38' W 122°20'0 0.0
2017-Oct-20 15:00N 47°38' W 122°20'0 0.0
2017-Oct-20 14:30N 47°38' W 122°20'0 0.0
2017-Oct-20 13:30N 47°38' W 122°20'0 0.0
2017-Oct-20 13:00N 47°38' W 122°20'0 0.0
2017-Oct-20 12:30N 47°38' W 122°20'0 0.0
2017-Oct-20 12:00N 47°38' W 122°20'0 0.0
2017-Oct-20 11:30N 47°38' W 122°20'0 0.0
2017-Oct-20 11:00N 47°38' W 122°20'0 0.0
2017-Oct-20 10:30N 47°38' W 122°20'0 0.0
2017-Oct-20 10:00N 47°38' W 122°20'0 0.0
2017-Oct-20 09:30N 47°38' W 122°20'0 0.0
2017-Oct-20 08:57N 47°38' W 122°20'0 0.0
2017-Oct-20 08:30N 47°38' W 122°20'0 0.0
2017-Oct-20 08:00N 47°38' W 122°20'0 0.0
2017-Oct-20 07:30N 47°38' W 122°20'0 0.0
2017-Oct-20 07:00N 47°38' W 122°20'0 0.0
2017-Oct-20 06:30N 47°38' W 122°20'0 0.0
2017-Oct-20 06:00N 47°38' W 122°20'0 0.0
2017-Oct-20 05:30N 47°38' W 122°20'0 0.0
2017-Oct-20 04:37N 47°38' W 122°20'0 0.0
2017-Oct-20 04:12N 47°38' W 122°20'0 0.0
2017-Oct-20 03:39N 47°38' W 122°20'0 0.0
2017-Oct-20 03:30N 47°38' W 122°20'0 0.0
2017-Oct-20 02:51N 47°38' W 122°20'0 0.0
2017-Oct-20 02:30N 47°38' W 122°20'0 0.0
2017-Oct-20 02:00N 47°38' W 122°20'0 0.0
2017-Oct-20 01:24N 47°38' W 122°20'0 0.0
2017-Oct-20 01:00N 47°38' W 122°20'0 0.0
2017-Oct-20 00:30N 47°38' W 122°20'0 0.0
2017-Oct-19 23:54N 47°38' W 122°20'0 0.0
2017-Oct-19 23:30N 47°38' W 122°20'0 0.0
2017-Oct-19 23:00N 47°38' W 122°20'0 0.0
2017-Oct-19 22:30N 47°38' W 122°20'0 0.0
2017-Oct-19 22:00N 47°38' W 122°20'0 0.0
2017-Oct-19 21:27N 47°38' W 122°20'0 0.0
2017-Oct-19 21:00N 47°38' W 122°20'0 0.0
2017-Oct-19 20:30N 47°38' W 122°20'0 0.1
2017-Oct-19 19:55N 47°38' W 122°20'0 0.0
2017-Oct-19 19:28N 47°38' W 122°20'0 0.0
2017-Oct-19 18:58N 47°38' W 122°20'0 0.0
2017-Oct-19 18:28N 47°38' W 122°20'0 0.0
2017-Oct-19 17:55N 47°38' W 122°20'0 0.0
2017-Oct-19 17:28N 47°38' W 122°20'0 0.0
2017-Oct-19 15:07N 47°38' W 122°20'0 0.0
2017-Oct-19 14:43N 47°38' W 122°20'0 0.0
2017-Oct-19 14:19N 47°38' W 122°20'0 0.0
2017-Oct-19 12:46N 47°38' W 122°20'0 0.0
2017-Oct-19 12:28N 47°38' W 122°20'0 0.0
2017-Oct-19 11:58N 47°38' W 122°20'0 0.0
2017-Oct-19 11:28N 47°38' W 122°20'0 0.0
2017-Oct-19 10:58N 47°38' W 122°20'0 0.0
2017-Oct-19 10:28N 47°38' W 122°20'0 0.0
2017-Oct-19 09:58N 47°38' W 122°20'0 0.0
2017-Oct-19 09:28N 47°38' W 122°20'0 0.0
2017-Oct-19 08:58N 47°38' W 122°20'0 0.0
2017-Oct-19 08:28N 47°38' W 122°20'0 0.0
2017-Oct-19 07:58N 47°38' W 122°20'0 0.0
2017-Oct-19 07:28N 47°38' W 122°20'0 0.0
2017-Oct-19 06:58N 47°38' W 122°20'0 0.0
2017-Oct-19 06:28N 47°38' W 122°20'0 0.0
2017-Oct-18 22:40N 47°38' W 122°20'0 0.0
2017-Oct-18 22:28N 47°38' W 122°20'0 0.0
2017-Oct-18 21:58N 47°38' W 122°20'0 0.0
2017-Oct-18 21:25N 47°38' W 122°20'0 0.0
2017-Oct-18 20:49N 47°38' W 122°20'  
Track history (hours):
 
Tides and Currents Weather Stations Pressure Air Temp Water Temp Dewpoint Dewpoint Depression Visibility Wind Speed Wind Dir Waves Ship Positions

Porosity

Owner: Bahlburg, Bill, plano, TX. More information available from US FCC via Universal Licensing System and Coast Guard Vessel Documentation Center.

Last reported at 2017-Oct-23 18:17 UTC. Time now 2017-Nov-18 21:58 UTC.
Position N 48°34' W 123°01'.
Warning: this ship's position is 26 days out of date.

Length 19 m.

Type: Pleasure craft. MMSI: 367488010.

Date/timePositionNaut miles runAvg speedWind from/ knotsBaromVisibWave heightAir tempDewpointWater temp
2017-Oct-23 18:17N 48°34' W 123°01'2 6.3
2017-Oct-23 18:00N 48°33' W 123°00'1 0.9
2017-Oct-23 17:24N 48°32' W 123°01'0 0.1
2017-Oct-23 17:00N 48°32' W 123°01'0 0.1
2017-Oct-23 16:30N 48°32' W 123°01'0 0.0
2017-Oct-23 16:00N 48°32' W 123°01'0 0.0
2017-Oct-23 15:30N 48°32' W 123°01'0 0.0
2017-Oct-23 15:00N 48°32' W 123°01'0 0.0
2017-Oct-23 14:30N 48°32' W 123°01'0 0.0
2017-Oct-23 14:00N 48°32' W 123°01'0 0.0
2017-Oct-23 13:30N 48°32' W 123°01'0 0.0
2017-Oct-23 13:00N 48°32' W 123°01'0 0.0
2017-Oct-23 12:18N 48°32' W 123°01'0 0.0
2017-Oct-23 11:54N 48°32' W 123°01'0 0.0
2017-Oct-23 11:30N 48°32' W 123°01'0 0.0
2017-Oct-23 10:57N 48°32' W 123°01'0 0.1
2017-Oct-23 10:24N 48°32' W 123°01'0 0.0
2017-Oct-23 10:00N 48°32' W 123°01'0 0.0
2017-Oct-23 09:24N 48°32' W 123°01'0 0.0
2017-Oct-23 09:00N 48°32' W 123°01'0 0.0
2017-Oct-23 08:30N 48°32' W 123°01'0 0.0
2017-Oct-23 08:00N 48°32' W 123°01'0 0.0
2017-Oct-23 07:21N 48°32' W 123°01'0 0.0
2017-Oct-23 07:00N 48°32' W 123°01'0 0.0
2017-Oct-23 06:24N 48°32' W 123°01'0 0.0
2017-Oct-23 06:00N 48°32' W 123°01'0 0.0
2017-Oct-23 05:30N 48°32' W 123°01'0 0.0
2017-Oct-23 05:00N 48°32' W 123°01'0 0.1
2017-Oct-23 04:30N 48°32' W 123°01'0 0.0
2017-Oct-23 03:42N 48°32' W 123°01'0 0.0
2017-Oct-23 03:30N 48°32' W 123°01'0 0.0
2017-Oct-23 03:00N 48°32' W 123°01'0 0.0
2017-Oct-23 02:24N 48°32' W 123°01'0 0.0
2017-Oct-23 01:57N 48°32' W 123°01'0 0.0
2017-Oct-23 01:30N 48°32' W 123°01'0 0.1
2017-Oct-23 00:59N 48°32' W 123°01'2 4.6
2017-Oct-23 00:30N 48°31' W 122°58'39 9.0
2017-Oct-22 20:14N 47°56' W 122°33'2 9.8
2017-Oct-22 20:00N 47°55' W 122°31'5 9.8
2017-Oct-22 19:30N 47°50' W 122°29'5 9.4
2017-Oct-22 19:00N 47°45' W 122°26'5 9.4
2017-Oct-22 18:30N 47°41' W 122°25'1 2.6
2017-Oct-22 17:59N 47°40' W 122°24'1 1.2
2017-Oct-22 17:30N 47°40' W 122°23'2 3.5
2017-Oct-22 17:00N 47°39' W 122°21'0 0.0
2017-Oct-22 16:30N 47°39' W 122°21'1 1.0
2017-Oct-22 16:00N 47°38' W 122°20'0 0.0
2017-Oct-22 15:30N 47°38' W 122°20'0 0.0
2017-Oct-22 15:00N 47°38' W 122°20'0 0.0
2017-Oct-22 14:30N 47°38' W 122°20'0 0.0
2017-Oct-22 14:00N 47°38' W 122°20'0 0.0
2017-Oct-22 13:30N 47°38' W 122°20'0 0.0
2017-Oct-22 13:00N 47°38' W 122°20'0 0.0
2017-Oct-22 12:30N 47°38' W 122°20'0 0.0
2017-Oct-22 12:00N 47°38' W 122°20'0 0.0
2017-Oct-22 11:30N 47°38' W 122°20'0 0.0
2017-Oct-22 11:00N 47°38' W 122°20'0 0.0
2017-Oct-22 10:30N 47°38' W 122°20'0 0.0
2017-Oct-22 10:00N 47°38' W 122°20'0 0.0
2017-Oct-22 09:30N 47°38' W 122°20'0 0.0
2017-Oct-22 09:00N 47°38' W 122°20'0 0.0
2017-Oct-22 08:30N 47°38' W 122°20'0 0.0
2017-Oct-22 07:54N 47°38' W 122°20'0 0.0
2017-Oct-22 07:30N 47°38' W 122°20'0 0.0
2017-Oct-22 07:00N 47°38' W 122°20'0 0.0
2017-Oct-22 06:30N 47°38' W 122°20'0 0.0
2017-Oct-22 06:00N 47°38' W 122°20'0 0.0
2017-Oct-22 05:30N 47°38' W 122°20'0 0.0
2017-Oct-22 05:00N 47°38' W 122°20'0 0.0
2017-Oct-22 04:30N 47°38' W 122°20'0 0.0
2017-Oct-22 04:00N 47°38' W 122°20'0 0.0
2017-Oct-22 03:27N 47°38' W 122°20'0 0.0
2017-Oct-22 03:00N 47°38' W 122°20'0 0.0
2017-Oct-22 02:30N 47°38' W 122°20'0 0.0
2017-Oct-22 01:51N 47°38' W 122°20'0 0.0
2017-Oct-22 01:30N 47°38' W 122°20'0 0.0
2017-Oct-22 00:51N 47°38' W 122°20'0 0.0
2017-Oct-22 00:18N 47°38' W 122°20'0 0.0
2017-Oct-21 23:55N 47°38' W 122°20'0 0.0
2017-Oct-21 23:25N 47°38' W 122°20'0 0.0
2017-Oct-21 22:54N 47°38' W 122°20'0 0.0
2017-Oct-21 22:27N 47°38' W 122°20'0 0.0
2017-Oct-21 21:57N 47°38' W 122°20'0 0.0
2017-Oct-21 21:30N 47°38' W 122°20'0 0.0
2017-Oct-21 20:57N 47°38' W 122°20'0 0.0
2017-Oct-21 20:18N 47°38' W 122°20'0 0.0
2017-Oct-21 19:57N 47°38' W 122°20'0 0.0
2017-Oct-21 19:30N 47°38' W 122°20'0 0.0
2017-Oct-21 19:00N 47°38' W 122°20'0 0.0
2017-Oct-21 18:30N 47°38' W 122°20'0 0.0
2017-Oct-21 18:00N 47°38' W 122°20'0 0.0
2017-Oct-21 17:30N 47°38' W 122°20'0 0.0
2017-Oct-21 17:00N 47°38' W 122°20'0 0.0
2017-Oct-21 16:30N 47°38' W 122°20'0 0.0
2017-Oct-21 16:00N 47°38' W 122°20'0 0.0
2017-Oct-21 15:30N 47°38' W 122°20'0 0.0
2017-Oct-21 15:00N 47°38' W 122°20'0 0.0
2017-Oct-21 14:00N 47°38' W 122°20'0 0.0
2017-Oct-21 13:30N 47°38' W 122°20'0 0.0
2017-Oct-21 13:00N 47°38' W 122°20'0 0.0
2017-Oct-21 12:30N 47°38' W 122°20'0 0.0
2017-Oct-21 12:00N 47°38' W 122°20'0 0.0
2017-Oct-21 11:30N 47°38' W 122°20'0 0.0
2017-Oct-21 11:00N 47°38' W 122°20'0 0.0
2017-Oct-21 10:30N 47°38' W 122°20'0 0.0
2017-Oct-21 10:00N 47°38' W 122°20'0 0.0
2017-Oct-21 09:30N 47°38' W 122°20'0 0.0
2017-Oct-21 09:00N 47°38' W 122°20'0 0.0
2017-Oct-21 08:30N 47°38' W 122°20'0 0.0
2017-Oct-21 08:00N 47°38' W 122°20'0 0.0
2017-Oct-21 07:30N 47°38' W 122°20'0 0.0
2017-Oct-21 07:00N 47°38' W 122°20'0 0.0
2017-Oct-21 06:30N 47°38' W 122°20'0 0.0
2017-Oct-21 06:00N 47°38' W 122°20'0 0.0
2017-Oct-21 05:30N 47°38' W 122°20'0 0.0
2017-Oct-21 05:00N 47°38' W 122°20'0 0.0
2017-Oct-21 04:30N 47°38' W 122°20'0 0.0
2017-Oct-21 04:00N 47°38' W 122°20'0 0.0
2017-Oct-21 03:30N 47°38' W 122°20'0 0.0
2017-Oct-21 03:00N 47°38' W 122°20'0 0.0
2017-Oct-21 02:30N 47°38' W 122°20'0 0.0
2017-Oct-21 02:00N 47°38' W 122°20'0 0.0
2017-Oct-21 01:30N 47°38' W 122°20'0 0.0
2017-Oct-21 01:00N 47°38' W 122°20'0 0.0
2017-Oct-21 00:30N 47°38' W 122°20'0 0.0
2017-Oct-21 00:00N 47°38' W 122°20'0 0.0
2017-Oct-20 23:30N 47°38' W 122°20'0 0.0
2017-Oct-20 23:00N 47°38' W 122°20'0 0.0
2017-Oct-20 22:30N 47°38' W 122°20'0 0.0
2017-Oct-20 22:00N 47°38' W 122°20'0 0.0
2017-Oct-20 21:30N 47°38' W 122°20'0 0.0
2017-Oct-20 21:00N 47°38' W 122°20'0 0.0
2017-Oct-20 20:30N 47°38' W 122°20'0 0.0
2017-Oct-20 20:00N 47°38' W 122°20'0 0.0
2017-Oct-20 19:30N 47°38' W 122°20'0 0.0
2017-Oct-20 19:00N 47°38' W 122°20'0 0.0
2017-Oct-20 18:30N 47°38' W 122°20'0 0.0
2017-Oct-20 18:00N 47°38' W 122°20'0 0.0
2017-Oct-20 17:30N 47°38' W 122°20'0 0.0
2017-Oct-20 16:42N 47°38' W 122°20'0 0.0
2017-Oct-20 16:27N 47°38' W 122°20'0 0.0
2017-Oct-20 16:00N 47°38' W 122°20'0 0.0
2017-Oct-20 15:30N 47°38' W 122°20'0 0.0
2017-Oct-20 15:00N 47°38' W 122°20'0 0.0
2017-Oct-20 14:30N 47°38' W 122°20'0 0.0
2017-Oct-20 13:30N 47°38' W 122°20'0 0.0
2017-Oct-20 13:00N 47°38' W 122°20'0 0.0
2017-Oct-20 12:30N 47°38' W 122°20'0 0.0
2017-Oct-20 12:00N 47°38' W 122°20'0 0.0
2017-Oct-20 11:30N 47°38' W 122°20'0 0.0
2017-Oct-20 11:00N 47°38' W 122°20'0 0.0
2017-Oct-20 10:30N 47°38' W 122°20'0 0.0
2017-Oct-20 10:00N 47°38' W 122°20'0 0.0
2017-Oct-20 09:30N 47°38' W 122°20'0 0.0
2017-Oct-20 08:57N 47°38' W 122°20'0 0.0
2017-Oct-20 08:30N 47°38' W 122°20'0 0.0
2017-Oct-20 08:00N 47°38' W 122°20'0 0.0
2017-Oct-20 07:30N 47°38' W 122°20'0 0.0
2017-Oct-20 07:00N 47°38' W 122°20'0 0.0
2017-Oct-20 06:30N 47°38' W 122°20'0 0.0
2017-Oct-20 06:00N 47°38' W 122°20'0 0.0
2017-Oct-20 05:30N 47°38' W 122°20'0 0.0
2017-Oct-20 04:37N 47°38' W 122°20'0 0.0
2017-Oct-20 04:12N 47°38' W 122°20'0 0.0
2017-Oct-20 03:39N 47°38' W 122°20'0 0.0
2017-Oct-20 03:30N 47°38' W 122°20'0 0.0
2017-Oct-20 02:51N 47°38' W 122°20'0 0.0
2017-Oct-20 02:30N 47°38' W 122°20'0 0.0
2017-Oct-20 02:00N 47°38' W 122°20'0 0.0
2017-Oct-20 01:24N 47°38' W 122°20'0 0.0
2017-Oct-20 01:00N 47°38' W 122°20'0 0.0
2017-Oct-20 00:30N 47°38' W 122°20'0 0.0
2017-Oct-19 23:54N 47°38' W 122°20'0 0.0
2017-Oct-19 23:30N 47°38' W 122°20'0 0.0
2017-Oct-19 23:00N 47°38' W 122°20'0 0.0
2017-Oct-19 22:30N 47°38' W 122°20'0 0.0
2017-Oct-19 22:00N 47°38' W 122°20'0 0.0
2017-Oct-19 21:27N 47°38' W 122°20'0 0.0
2017-Oct-19 21:00N 47°38' W 122°20'0 0.0
2017-Oct-19 20:30N 47°38' W 122°20'0 0.1
2017-Oct-19 19:55N 47°38' W 122°20'0 0.0
2017-Oct-19 19:28N 47°38' W 122°20'0 0.0
2017-Oct-19 18:58N 47°38' W 122°20'0 0.0
2017-Oct-19 18:28N 47°38' W 122°20'0 0.0
2017-Oct-19 17:55N 47°38' W 122°20'0 0.0
2017-Oct-19 17:28N 47°38' W 122°20'0 0.0
2017-Oct-19 15:07N 47°38' W 122°20'0 0.0
2017-Oct-19 14:43N 47°38' W 122°20'0 0.0
2017-Oct-19 14:19N 47°38' W 122°20'0 0.0
2017-Oct-19 12:46N 47°38' W 122°20'0 0.0
2017-Oct-19 12:28N 47°38' W 122°20'0 0.0
2017-Oct-19 11:58N 47°38' W 122°20'0 0.0
2017-Oct-19 11:28N 47°38' W 122°20'0 0.0
2017-Oct-19 10:58N 47°38' W 122°20'0 0.0
2017-Oct-19 10:28N 47°38' W 122°20'0 0.0
2017-Oct-19 09:58N 47°38' W 122°20'0 0.0
2017-Oct-19 09:28N 47°38' W 122°20'0 0.0
2017-Oct-19 08:58N 47°38' W 122°20'0 0.0
2017-Oct-19 08:28N 47°38' W 122°20'0 0.0
2017-Oct-19 07:58N 47°38' W 122°20'0 0.0
2017-Oct-19 07:28N 47°38' W 122°20'0 0.0
2017-Oct-19 06:58N 47°38' W 122°20'0 0.0
2017-Oct-19 06:28N 47°38' W 122°20'0 0.0
2017-Oct-18 22:40N 47°38' W 122°20'0 0.0
2017-Oct-18 22:28N 47°38' W 122°20'0 0.0
2017-Oct-18 21:58N 47°38' W 122°20'0 0.0
2017-Oct-18 21:25N 47°38' W 122°20'0 0.0
2017-Oct-18 20:49N 47°38' W 122°20'  

Dump ship's entire track history